Time;durP1;ratioP1;P1;durP2;ratioP2;P2;SDS_P1;SDS_P2;PMS_P1;PMS_P2;Temp;Humidity;BMP_temperature;BMP_pressure;BME280_temperature;BME280_humidity;BME280_pressure;Samples;Min_cycle;Max_cycle;Signal;HPM_P1;HPM_P2
2023/05/08 00:02:00;;;;;;;0.20;0.20;;;;;;;19.67;47.48;101593.94;5118012;28;20047;-43
2023/05/08 00:04:26;;;;;;;0.20;0.20;;;;;;;19.66;47.79;101585.91;5097736;28;20047;-46
2023/05/08 00:06:51;;;;;;;0.20;0.20;;;;;;;19.67;47.64;101595.88;5098263;28;20068;-44
2023/05/08 00:09:18;;;;;;;0.20;0.20;;;;;;;19.66;47.74;101594.22;5098024;28;20092;-44
2023/05/08 00:11:44;;;;;;;0.20;0.20;;;;;;;19.66;47.47;101592.28;5100236;28;20426;-44
2023/05/08 00:14:10;;;;;;;0.20;0.20;;;;;;;19.66;47.58;101591.44;5118452;28;20126;-46
2023/05/08 00:16:36;;;;;;;0.20;0.20;;;;;;;19.66;47.62;101594.22;5118171;28;20483;-44
2023/05/08 00:19:02;;;;;;;0.20;0.20;;;;;;;19.65;47.54;101585.09;5118268;28;20054;-43
2023/05/08 00:21:28;;;;;;;0.20;0.20;;;;;;;19.66;47.62;101592.28;5099872;28;20043;-42
2023/05/08 00:23:54;;;;;;;0.20;0.20;;;;;;;19.67;47.65;101590.34;5118518;28;20447;-44
2023/05/08 00:26:20;;;;;;;0.28;0.28;;;;;;;19.67;47.64;101593.09;5118160;28;20043;-43
2023/05/08 00:28:46;;;;;;;0.25;0.25;;;;;;;19.66;47.57;101594.22;5117561;28;20480;-43
2023/05/08 00:31:12;;;;;;;0.30;0.30;;;;;;;19.66;47.71;101597.81;5117884;28;20510;-45
2023/05/08 00:33:38;;;;;;;0.20;0.20;;;;;;;19.67;47.78;101595.88;5114776;28;20499;-43
2023/05/08 00:36:04;;;;;;;0.22;0.22;;;;;;;19.67;47.80;101598.63;5097563;28;20054;-45
2023/05/08 00:38:31;;;;;;;0.20;0.20;;;;;;;19.66;47.71;101605.25;5079326;28;20043;-46
2023/05/08 00:40:57;;;;;;;0.20;0.20;;;;;;;19.66;47.78;101597.81;5087048;28;20097;-45
2023/05/08 00:43:26;;;;;;;0.20;0.20;;;;;;;19.65;47.49;101593.38;5098206;28;20488;-42
2023/05/08 00:45:55;;;;;;;0.25;0.25;;;;;;;19.66;47.77;101597.81;5097742;28;20059;-45
2023/05/08 00:48:22;;;;;;;0.20;0.20;;;;;;;19.65;47.66;101593.38;5079361;28;20148;-44
2023/05/08 00:50:49;;;;;;;0.20;0.20;;;;;;;19.66;47.54;101600.56;5079496;28;20043;-43
2023/05/08 00:53:16;;;;;;;0.20;0.20;;;;;;;19.66;47.82;101597.81;5098029;28;20044;-44
2023/05/08 00:55:42;;;;;;;0.20;0.20;;;;;;;19.66;47.47;101586.75;5097213;28;20085;-45
2023/05/08 00:58:08;;;;;;;0.20;0.20;;;;;;;19.66;47.75;101600.56;5078690;28;20796;-42
2023/05/08 01:00:35;;;;;;;0.20;0.20;;;;;;;19.66;47.61;101596.97;5096727;28;20214;-45
2023/05/08 01:03:00;;;;;;;0.20;0.20;;;;;;;19.66;47.38;101597.81;5097410;28;20036;-43
2023/05/08 01:05:27;;;;;;;0.20;0.20;;;;;;;19.67;47.64;101601.41;5096780;28;20617;-45
2023/05/08 01:07:52;;;;;;;0.28;0.28;;;;;;;19.66;47.58;101603.31;5096502;28;20056;-45
2023/05/08 01:10:18;;;;;;;0.20;0.20;;;;;;;19.67;47.63;101604.16;5096316;28;20140;-43
2023/05/08 01:13:07;;;;;;;0.30;0.30;;;;;;;19.67;47.53;101602.22;5096982;28;20435;-46
2023/05/08 01:15:38;;;;;;;0.20;0.20;;;;;;;19.67;47.82;101595.88;5082486;28;20035;-44
2023/05/08 01:18:23;;;;;;;0.20;0.20;;;;;;;19.67;47.51;101595.88;5078441;28;20055;-45
2023/05/08 01:21:03;;;;;;;0.20;0.20;;;;;;;19.66;47.53;101600.56;5096370;28;20079;-44
2023/05/08 01:23:55;;;;;;;0.20;0.20;;;;;;;19.67;47.73;101598.63;5097117;28;20114;-45
2023/05/08 01:26:46;;;;;;;0.20;0.20;;;;;;;19.66;47.87;101600.56;5078524;28;20044;-44
2023/05/08 01:29:42;;;;;;;0.20;0.20;;;;;;;19.66;47.58;101605.25;5082073;28;20048;-45
2023/05/08 01:32:26;;;;;;;0.20;0.20;;;;;;;19.66;47.55;101611.63;5081358;28;20060;-43
2023/05/08 01:35:16;;;;;;;0.20;0.20;;;;;;;19.66;47.60;101614.38;5117004;28;20054;-42
2023/05/08 01:37:57;;;;;;;0.20;0.20;;;;;;;19.67;47.58;101610.50;5101623;28;20093;-46
2023/05/08 01:41:01;;;;;;;0.20;0.20;;;;;;;19.67;47.72;101617.97;5116137;28;20075;-44
2023/05/08 01:44:00;;;;;;;0.20;0.20;;;;;;;19.66;47.54;101614.38;5103039;28;20043;-42
2023/05/08 01:46:27;;;;;;;0.20;0.20;;;;;;;19.67;47.77;101616.03;5102034;28;20082;-43
2023/05/08 01:49:10;;;;;;;0.20;0.20;;;;;;;19.66;47.46;101619.09;5116600;28;20047;-43
2023/05/08 01:51:57;;;;;;;0.20;0.20;;;;;;;19.66;47.63;101619.91;5110888;28;20047;-45
2023/05/08 01:54:25;;;;;;;0.20;0.20;;;;;;;19.67;47.86;101620.75;5098343;28;20066;-46
2023/05/08 01:56:53;;;;;;;0.20;0.20;;;;;;;19.66;47.60;101617.16;5098269;28;20075;-43
2023/05/08 01:59:21;;;;;;;0.20;0.20;;;;;;;19.66;47.49;101628.19;5115911;28;20135;-45
2023/05/08 02:01:48;;;;;;;0.10;0.10;;;;;;;19.66;47.54;101621.84;5077717;28;20085;-43
2023/05/08 02:04:15;;;;;;;0.20;0.20;;;;;;;19.66;47.83;101625.44;5096855;28;20047;-44
2023/05/08 02:06:41;;;;;;;0.20;0.20;;;;;;;19.67;47.37;101626.25;5116177;28;20266;-45
2023/05/08 02:09:08;;;;;;;0.20;0.20;;;;;;;19.67;47.61;101624.31;5097304;28;20116;-44
2023/05/08 02:11:35;;;;;;;0.20;0.20;;;;;;;19.67;47.72;101629.84;5097357;28;20054;-42
2023/05/08 02:14:01;;;;;;;0.20;0.20;;;;;;;19.66;47.72;101632.91;5098072;28;20050;-43
2023/05/08 02:16:27;;;;;;;0.30;0.30;;;;;;;19.66;47.86;101628.19;5098333;28;20118;-43
2023/05/08 02:18:54;;;;;;;0.20;0.20;;;;;;;19.66;47.79;101632.91;5097967;28;20073;-46
2023/05/08 02:21:21;;;;;;;0.20;0.20;;;;;;;19.67;47.30;101637.31;5115004;27;20187;-42
2023/05/08 02:23:47;;;;;;;0.20;0.20;;;;;;;19.66;47.64;101647.53;5097949;28;20042;-43
2023/05/08 02:26:14;;;;;;;0.20;0.20;;;;;;;19.66;47.71;101642.00;5116400;28;20051;-43
2023/05/08 02:28:40;;;;;;;0.20;0.20;;;;;;;19.66;47.82;101649.47;5116495;28;20047;-45
2023/05/08 02:31:08;;;;;;;0.25;0.25;;;;;;;19.67;47.68;101645.59;5097387;28;20043;-43
2023/05/08 02:33:33;;;;;;;0.20;0.20;;;;;;;19.66;47.77;101644.78;5093943;28;20067;-46
2023/05/08 02:36:00;;;;;;;0.20;0.20;;;;;;;19.66;47.49;101653.06;5095740;28;20074;-44
2023/05/08 02:38:26;;;;;;;0.20;0.20;;;;;;;19.67;47.74;101648.38;5095819;28;20135;-43
2023/05/08 02:40:56;;;;;;;0.20;0.20;;;;;;;19.67;47.86;101653.91;5108969;28;20142;-43
2023/05/08 02:43:22;;;;;;;0.20;0.20;;;;;;;19.67;47.63;101648.38;5115842;27;20499;-44
2023/05/08 02:45:58;;;;;;;0.20;0.20;;;;;;;19.66;47.90;101642.00;5102613;28;20051;-42
2023/05/08 02:48:46;;;;;;;0.20;0.20;;;;;;;19.67;47.76;101643.66;5095794;28;20522;-42
2023/05/08 02:51:52;;;;;;;0.20;0.20;;;;;;;19.66;47.56;101639.25;5093526;28;20078;-43
2023/05/08 02:54:42;;;;;;;0.20;0.20;;;;;;;19.66;47.57;101642.00;5098784;28;20054;-44
2023/05/08 02:57:14;;;;;;;0.20;0.20;;;;;;;19.67;47.76;101637.31;5097646;28;20047;-44
2023/05/08 02:59:44;;;;;;;0.20;0.20;;;;;;;19.68;47.78;101638.97;5094122;28;20243;-47
2023/05/08 03:02:31;;;;;;;0.20;0.20;;;;;;;19.66;47.70;101630.97;5077010;28;20130;-43
2023/05/08 03:05:03;;;;;;;0.20;0.20;;;;;;;19.66;47.56;101621.84;5080321;28;20047;-47
2023/05/08 03:07:29;;;;;;;0.20;0.20;;;;;;;19.66;48.06;101630.97;5077384;28;20044;-44
2023/05/08 03:09:59;;;;;;;0.20;0.20;;;;;;;19.66;47.96;101625.44;5095931;28;20138;-45
2023/05/08 03:12:27;;;;;;;0.20;0.20;;;;;;;19.67;47.54;101617.97;5077046;28;20091;-42
2023/05/08 03:15:32;;;;;;;0.20;0.20;;;;;;;19.66;47.65;101622.66;5077000;28;20075;-46
2023/05/08 03:18:05;;;;;;;0.20;0.20;;;;;;;19.67;47.64;101627.09;5079817;28;20130;-42
2023/05/08 03:20:33;;;;;;;0.30;0.30;;;;;;;19.67;47.82;101623.50;5095314;28;20044;-46
2023/05/08 03:23:01;;;;;;;0.20;0.20;;;;;;;19.67;47.83;101629.03;5095300;28;20048;-43
2023/05/08 03:25:28;;;;;;;0.20;0.20;;;;;;;19.67;47.89;101623.50;5095231;28;20047;-42
2023/05/08 03:27:55;;;;;;;0.20;0.20;;;;;;;19.68;47.65;101636.22;5095470;28;20483;-43
2023/05/08 03:30:21;;;;;;;0.20;0.20;;;;;;;19.67;47.62;101623.50;5095386;28;20047;-43
2023/05/08 03:32:47;;;;;;;0.20;0.20;;;;;;;19.66;47.70;101625.44;5083184;28;20085;-42
2023/05/08 03:35:14;;;;;;;0.20;0.20;;;;;;;19.67;47.67;101629.84;5119188;28;20062;-44
2023/05/08 03:37:41;;;;;;;0.20;0.20;;;;;;;19.67;47.88;101629.84;5118781;28;20396;-43
2023/05/08 03:40:07;;;;;;;0.20;0.20;;;;;;;19.67;47.73;101621.56;5119467;28;20093;-44
2023/05/08 03:42:33;;;;;;;0.20;0.20;;;;;;;19.66;47.90;101624.59;5119310;27;20043;-43
2023/05/08 03:44:59;;;;;;;0.20;0.20;;;;;;;19.67;47.76;101629.03;5119103;28;20062;-43
2023/05/08 03:47:26;;;;;;;0.20;0.20;;;;;;;19.66;47.56;101630.97;5117813;28;20051;-43
2023/05/08 03:49:52;;;;;;;0.20;0.20;;;;;;;19.67;47.71;101629.03;5113705;28;20054;-44
2023/05/08 03:52:17;;;;;;;0.15;0.15;;;;;;;19.66;47.54;101630.97;5098650;28;20229;-43
2023/05/08 03:54:43;;;;;;;0.20;0.20;;;;;;;19.67;47.45;101627.09;5102632;28;20040;-43
2023/05/08 03:57:09;;;;;;;0.20;0.20;;;;;;;19.67;47.50;101621.56;5098023;28;20043;-45
2023/05/08 03:59:42;;;;;;;0.20;0.20;;;;;;;19.66;47.69;101627.38;5101139;28;20051;-44
2023/05/08 04:02:28;;;;;;;0.30;0.30;;;;;;;19.67;47.68;101629.03;5119145;27;20062;-45
2023/05/08 04:05:01;;;;;;;0.25;0.25;;;;;;;19.67;47.69;101634.56;5100072;28;20649;-44
2023/05/08 04:07:30;;;;;;;0.20;0.20;;;;;;;19.66;47.99;101632.91;5100234;28;20082;-45
2023/05/08 04:10:05;;;;;;;0.20;0.20;;;;;;;19.66;47.86;101647.53;5083319;28;20071;-43
2023/05/08 04:12:37;;;;;;;0.20;0.20;;;;;;;19.67;47.93;101643.66;5100650;28;20089;-45
2023/05/08 04:15:07;;;;;;;0.20;0.20;;;;;;;19.67;47.86;101646.44;5118567;28;20328;-45
2023/05/08 04:17:38;;;;;;;0.20;0.20;;;;;;;19.67;47.61;101648.38;5100099;28;20043;-45
2023/05/08 04:20:06;;;;;;;0.20;0.20;;;;;;;19.66;47.60;101647.53;5118284;28;20136;-44
2023/05/08 04:22:32;;;;;;;0.20;0.20;;;;;;;19.67;47.72;101640.09;5118388;28;20082;-43
2023/05/08 04:25:01;;;;;;;0.20;0.20;;;;;;;19.66;47.52;101642.00;5099932;28;20054;-43
2023/05/08 04:27:28;;;;;;;0.20;0.20;;;;;;;19.67;47.61;101642.84;5100089;28;20051;-44
2023/05/08 04:29:55;;;;;;;0.20;0.20;;;;;;;19.67;47.60;101637.31;5117766;28;20049;-46
2023/05/08 04:32:21;;;;;;;0.20;0.20;;;;;;;19.68;47.63;101645.34;5115306;28;20054;-42
2023/05/08 04:34:47;;;;;;;0.20;0.20;;;;;;;19.66;47.54;101642.00;5078924;28;20316;-44
2023/05/08 04:37:30;;;;;;;0.20;0.20;;;;;;;19.67;47.74;101640.09;5097339;28;20141;-44
2023/05/08 04:39:55;;;;;;;0.20;0.20;;;;;;;19.68;47.58;101641.75;5078824;28;20082;-45
2023/05/08 04:42:21;;;;;;;0.20;0.20;;;;;;;19.69;47.61;101646.16;5097654;28;20048;-44
2023/05/08 04:44:47;;;;;;;0.20;0.20;;;;;;;19.67;47.61;101643.66;5096249;28;20058;-44
2023/05/08 04:47:13;;;;;;;0.20;0.20;;;;;;;19.68;47.68;101647.25;5096945;28;20063;-42
2023/05/08 04:49:39;;;;;;;0.20;0.20;;;;;;;19.67;47.55;101646.44;5099238;28;20050;-42
2023/05/08 04:52:05;;;;;;;0.20;0.20;;;;;;;19.68;47.53;101650.03;5117681;28;20067;-43
2023/05/08 04:54:31;;;;;;;0.20;0.20;;;;;;;19.68;47.83;101655.56;5117400;28;20093;-42
2023/05/08 04:56:57;;;;;;;0.20;0.20;;;;;;;19.69;48.06;101654.44;5116165;28;20051;-43
2023/05/08 04:59:23;;;;;;;0.30;0.30;;;;;;;19.69;47.75;101662.75;5114101;28;20077;-44
2023/05/08 05:01:49;;;;;;;0.20;0.20;;;;;;;19.67;47.74;101651.13;5113535;28;20085;-42
2023/05/08 05:04:15;;;;;;;0.20;0.20;;;;;;;19.67;47.72;101662.19;5113158;28;20058;-42
2023/05/08 05:06:41;;;;;;;0.20;0.20;;;;;;;19.67;47.81;101664.94;5113961;28;20035;-43
2023/05/08 05:09:07;;;;;;;0.20;0.20;;;;;;;19.67;47.72;101662.19;5113675;28;20401;-43
2023/05/08 05:11:32;;;;;;;0.20;0.20;;;;;;;19.67;47.64;101660.25;5095351;28;20047;-43
2023/05/08 05:13:58;;;;;;;0.28;0.28;;;;;;;19.69;47.72;101665.50;5105192;28;20043;-44
2023/05/08 05:16:24;;;;;;;0.20;0.20;;;;;;;19.69;48.02;101669.13;5117472;28;20523;-44
2023/05/08 05:18:49;;;;;;;0.20;0.20;;;;;;;19.69;47.80;101671.03;5117252;28;20050;-42
2023/05/08 05:21:16;;;;;;;0.20;0.20;;;;;;;19.68;47.67;101672.13;5110807;28;20075;-45
2023/05/08 05:23:41;;;;;;;0.20;0.20;;;;;;;19.68;47.86;101678.50;5116890;28;20075;-43
2023/05/08 05:26:07;;;;;;;0.20;0.20;;;;;;;19.68;47.81;101680.44;5111690;28;20118;-45
2023/05/08 05:28:33;;;;;;;0.20;0.20;;;;;;;19.66;49.59;101686.22;5109590;27;20047;-55
2023/05/08 05:30:59;;;;;;;0.20;0.20;;;;;;;19.66;49.99;101677.09;5114130;28;20047;-45
2023/05/08 05:33:24;;;;;;;0.25;0.25;;;;;;;19.69;50.01;101680.19;5088197;28;20189;-43
2023/05/08 05:35:50;;;;;;;0.20;0.20;;;;;;;19.73;49.15;101678.56;5103977;28;20043;-45
2023/05/08 05:38:16;;;;;;;0.20;0.20;;;;;;;19.72;48.84;101676.03;5109647;28;20039;-45
2023/05/08 05:40:41;;;;;;;0.20;0.20;;;;;;;19.73;48.71;101678.56;5109394;28;20035;-43
2023/05/08 05:43:07;;;;;;;0.20;0.20;;;;;;;19.73;48.67;101678.56;5113746;28;20035;-44
2023/05/08 05:45:33;;;;;;;0.20;0.20;;;;;;;19.73;48.68;101684.06;5112222;28;20039;-44
2023/05/08 05:47:59;;;;;;;0.20;0.20;;;;;;;19.72;48.59;101682.38;5113916;28;20304;-45
2023/05/08 05:50:26;;;;;;;0.20;0.20;;;;;;;19.74;48.93;101688.50;5103325;28;20653;-42
2023/05/08 05:52:51;;;;;;;0.20;0.20;;;;;;;19.74;49.46;101685.75;5114154;28;20372;-42
2023/05/08 05:55:17;;;;;;;0.20;0.20;;;;;;;19.76;49.03;101689.06;5104589;27;20237;-45
2023/05/08 05:57:43;;;;;;;0.20;0.20;;;;;;;19.80;49.66;101689.34;5103556;28;20109;-44
2023/05/08 06:00:10;;;;;;;0.20;0.20;;;;;;;19.78;48.88;101691.56;5092590;28;20793;-44
2023/05/08 06:02:35;;;;;;;0.20;0.20;;;;;;;19.78;49.49;101683.28;5084764;28;20074;-43
2023/05/08 06:05:02;;;;;;;0.20;0.20;;;;;;;19.77;49.15;101690.75;5098946;28;20047;-43
2023/05/08 06:07:27;;;;;;;0.20;0.20;;;;;;;19.77;48.74;101685.22;5106563;28;20047;-42
2023/05/08 06:09:53;;;;;;;0.20;0.20;;;;;;;19.77;48.64;101690.75;5097054;28;20518;-44
2023/05/08 06:12:19;;;;;;;0.20;0.20;;;;;;;19.77;48.91;101687.97;5104554;28;20051;-43
2023/05/08 06:14:44;;;;;;;0.20;0.20;;;;;;;19.77;48.49;101687.97;5107858;28;20081;-46
2023/05/08 06:17:10;;;;;;;0.20;0.20;;;;;;;19.79;48.88;101687.69;5105287;28;20043;-45
2023/05/08 06:19:36;;;;;;;0.10;0.10;;;;;;;19.78;48.40;101695.16;5102668;28;20059;-43
2023/05/08 06:22:02;;;;;;;0.20;0.20;;;;;;;19.80;48.53;101690.19;5110099;27;20435;-44
2023/05/08 06:24:27;;;;;;;0.20;0.20;;;;;;;19.79;48.52;101688.53;5108268;27;20102;-43
2023/05/08 06:26:53;;;;;;;0.20;0.20;;;;;;;19.82;49.54;101697.38;5103882;28;20456;-44
2023/05/08 06:29:19;;;;;;;0.20;0.20;;;;;;;19.82;48.78;101691.84;5108087;28;20055;-43
2023/05/08 06:31:44;;;;;;;0.20;0.20;;;;;;;19.82;48.86;101698.22;5099730;27;20399;-44
2023/05/08 06:34:10;;;;;;;0.20;0.20;;;;;;;19.83;48.75;101701.81;5102896;28;20057;-44
2023/05/08 06:36:36;;;;;;;0.20;0.20;;;;;;;19.84;49.08;101718.13;5110235;28;20062;-45
2023/05/08 06:39:04;;;;;;;0.20;0.20;;;;;;;19.91;51.70;101712.38;5086091;27;20459;-44
2023/05/08 06:41:30;;;;;;;0.20;0.20;;;;;;;19.89;50.02;101722.84;5105168;28;20070;-43
2023/05/08 06:43:56;;;;;;;0.20;0.20;;;;;;;19.90;50.79;101716.22;5104339;28;20043;-45
2023/05/08 06:46:22;;;;;;;0.20;0.20;;;;;;;19.89;50.82;101709.03;5094706;27;20097;-43
2023/05/08 06:48:47;;;;;;;0.20;0.20;;;;;;;19.90;50.29;101718.97;5092674;27;20050;-45
2023/05/08 06:51:13;;;;;;;0.20;0.20;;;;;;;19.92;50.70;101723.16;5099625;28;20206;-44
2023/05/08 06:53:39;;;;;;;0.20;0.20;;;;;;;19.93;50.76;101726.75;5091512;28;20468;-45
2023/05/08 06:56:05;;;;;;;0.20;0.20;;;;;;;19.93;50.49;101715.69;5092755;28;20123;-43
2023/05/08 06:58:31;;;;;;;0.20;0.20;;;;;;;19.93;50.61;101729.53;5094175;28;20594;-47
2023/05/08 07:01:00;;;;;;;0.20;0.20;;;;;;;19.92;50.70;101717.63;5067520;28;20064;-43
2023/05/08 07:03:26;;;;;;;0.20;0.20;;;;;;;19.92;50.54;101725.94;5083038;28;20084;-46
2023/05/08 07:05:52;;;;;;;0.20;0.20;;;;;;;19.94;50.72;101729.25;5068775;27;20832;-42
2023/05/08 07:08:18;;;;;;;0.20;0.20;;;;;;;19.93;50.31;101724.81;5083502;28;20715;-44
2023/05/08 07:10:44;;;;;;;0.20;0.20;;;;;;;19.94;51.01;101745.00;5079144;27;20410;-43
2023/05/08 07:13:10;;;;;;;0.20;0.20;;;;;;;19.95;50.97;101727.34;5080358;27;20285;-44
2023/05/08 07:15:37;;;;;;;0.20;0.20;;;;;;;19.95;50.49;101736.47;5090234;28;20440;-44
2023/05/08 07:18:03;;;;;;;0.20;0.20;;;;;;;19.93;49.91;101733.13;5088288;27;20054;-45
2023/05/08 07:20:29;;;;;;;0.20;0.20;;;;;;;19.93;51.04;101733.13;5091408;28;20054;-45
2023/05/08 07:22:55;;;;;;;0.20;0.20;;;;;;;19.94;51.15;101740.31;5086544;27;20051;-45
2023/05/08 07:25:20;;;;;;;0.30;0.30;;;;;;;19.92;50.89;101742.50;5085887;27;20051;-46
2023/05/08 07:27:46;;;;;;;0.20;0.20;;;;;;;19.92;51.31;101742.50;5097324;27;20384;-44
2023/05/08 07:30:12;;;;;;;0.20;0.20;;;;;;;19.92;51.63;101747.22;5095443;27;20100;-44
2023/05/08 07:32:38;;;;;;;0.20;0.20;;;;;;;19.93;51.20;101740.56;5097471;27;20566;-45
2023/05/08 07:35:07;;;;;;;0.20;0.20;;;;;;;19.93;51.01;101746.94;5098959;27;20050;-45
2023/05/08 07:37:35;;;;;;;0.20;0.20;;;;;;;19.93;50.82;101741.41;5082883;28;20111;-45
2023/05/08 07:40:01;;;;;;;0.20;0.20;;;;;;;19.95;51.76;101749.47;5102801;27;20293;-45
2023/05/08 07:42:27;;;;;;;0.20;0.20;;;;;;;19.96;51.36;101743.66;5098101;27;20487;-45
2023/05/08 07:44:52;;;;;;;0.25;0.25;;;;;;;19.95;49.58;101741.16;5097919;27;20460;-44
2023/05/08 07:47:21;;;;;;;0.20;0.20;;;;;;;19.95;50.05;101743.94;5101915;27;20108;-42
2023/05/08 07:49:46;;;;;;;0.20;0.20;;;;;;;19.95;51.15;101744.75;5094023;27;20063;-44
2023/05/08 07:52:12;;;;;;;0.20;0.20;;;;;;;19.95;50.12;101744.75;5102198;27;20051;-42
2023/05/08 07:54:38;;;;;;;0.20;0.20;;;;;;;19.94;49.39;101745.84;5100737;28;20039;-44
2023/05/08 07:57:03;;;;;;;0.20;0.20;;;;;;;19.95;49.91;101744.75;5090863;27;20917;-44
2023/05/08 07:59:29;;;;;;;0.20;0.20;;;;;;;19.95;51.02;101742.00;5094028;27;20243;-42
2023/05/08 08:01:55;;;;;;;0.20;0.20;;;;;;;19.95;50.58;101741.16;5089494;27;20398;-44
2023/05/08 08:04:20;;;;;;;0.20;0.20;;;;;;;19.96;49.91;101740.06;5096526;27;20574;-42
2023/05/08 08:06:46;;;;;;;0.20;0.20;;;;;;;19.95;49.33;101735.63;5088959;27;20855;-43
2023/05/08 08:09:12;;;;;;;0.20;0.20;;;;;;;19.98;49.43;101744.19;5080632;27;20078;-42
2023/05/08 08:11:38;;;;;;;0.20;0.20;;;;;;;19.97;50.03;101741.72;5077337;27;20135;-42
2023/05/08 08:14:03;;;;;;;0.20;0.20;;;;;;;19.99;51.72;101742.25;5095825;27;20062;-43
2023/05/08 08:16:29;;;;;;;0.20;0.20;;;;;;;20.00;50.54;101739.25;5101645;27;20276;-42
2023/05/08 08:18:55;;;;;;;0.20;0.20;;;;;;;20.00;51.22;101724.59;5100519;27;20047;-43
2023/05/08 08:21:20;;;;;;;0.20;0.20;;;;;;;20.00;50.64;101742.03;5097928;27;20399;-43
2023/05/08 08:23:46;;;;;;;0.20;0.20;;;;;;;20.01;50.00;101745.63;5110540;27;20816;-42
2023/05/08 08:26:12;;;;;;;0.20;0.20;;;;;;;20.02;56.55;101744.50;5101953;27;20044;-41
2023/05/08 08:28:37;;;;;;;0.20;0.20;;;;;;;20.05;52.14;101746.75;5102562;28;20051;-41
2023/05/08 08:31:03;;;;;;;0.20;0.20;;;;;;;20.07;53.29;101752.81;5098824;27;20090;-41
2023/05/08 08:33:29;;;;;;;0.20;0.20;;;;;;;20.10;52.68;101743.19;5090169;28;20692;-42
2023/05/08 08:35:55;;;;;;;0.20;0.20;;;;;;;20.13;53.67;101742.66;5086133;28;20055;-43
2023/05/08 08:38:20;;;;;;;0.20;0.20;;;;;;;20.09;52.18;101750.66;5087439;28;20107;-43
2023/05/08 08:40:46;;;;;;;0.20;0.20;;;;;;;20.09;53.24;101749.81;5082065;28;20243;-42
2023/05/08 08:43:12;;;;;;;0.20;0.20;;;;;;;20.05;52.56;101750.34;5087119;28;20512;-45
2023/05/08 08:45:38;;;;;;;0.20;0.20;;;;;;;20.04;51.94;101742.31;5091899;27;20645;-42
2023/05/08 08:48:04;;;;;;;0.20;0.20;;;;;;;20.04;52.24;101748.69;5060193;28;20040;-42
2023/05/08 08:50:32;;;;;;;0.30;0.30;;;;;;;20.08;52.46;101740.69;5090947;27;20047;-45
2023/05/08 08:53:11;;;;;;;0.20;0.20;;;;;;;20.13;52.64;101742.66;5094931;27;20055;-41
2023/05/08 08:55:39;;;;;;;0.20;0.20;;;;;;;20.13;53.44;101739.88;5082408;28;20269;-42
2023/05/08 08:58:29;;;;;;;0.20;0.20;;;;;;;20.13;53.51;101742.66;5093467;27;20047;-44
2023/05/08 09:00:55;;;;;;;0.30;0.30;;;;;;;20.10;54.08;101743.19;5076594;28;20043;-44
2023/05/08 09:03:21;;;;;;;0.20;0.20;;;;;;;20.12;52.13;101746.50;5100155;28;20074;-43
2023/05/08 09:05:48;;;;;;;0.20;0.20;;;;;;;20.13;53.23;101745.41;5100793;27;20047;-44
2023/05/08 09:08:14;;;;;;;0.20;0.20;;;;;;;20.14;54.23;101742.38;5106341;28;20228;-43
2023/05/08 09:10:40;;;;;;;0.20;0.20;;;;;;;20.12;53.87;101747.34;5081075;27;20047;-44
2023/05/08 09:13:05;;;;;;;0.20;0.20;;;;;;;20.12;52.72;101747.34;5102993;27;20376;-44
2023/05/08 09:15:32;;;;;;;0.20;0.20;;;;;;;20.12;53.28;101754.78;5099658;27;20047;-44
2023/05/08 09:18:00;;;;;;;0.20;0.20;;;;;;;20.14;52.67;101750.66;5093853;27;20042;-45
2023/05/08 09:20:26;;;;;;;0.20;0.20;;;;;;;20.13;53.26;101745.41;5084984;27;20332;-44
2023/05/08 09:22:51;;;;;;;0.30;0.30;;;;;;;20.12;53.13;101757.56;5102153;27;20581;-44
2023/05/08 09:25:17;;;;;;;0.20;0.20;;;;;;;20.14;53.06;101747.06;5097962;27;20300;-45
2023/05/08 09:27:44;;;;;;;0.20;0.20;;;;;;;20.14;52.91;101744.31;5103301;27;20073;-44
2023/05/08 09:30:11;;;;;;;0.20;0.20;;;;;;;20.14;53.18;101745.13;5102763;27;20039;-44
2023/05/08 09:32:39;;;;;;;0.43;0.30;;;;;;;20.13;52.04;101737.94;5089631;27;20063;-44
2023/05/08 09:35:07;;;;;;;0.30;0.30;;;;;;;20.13;51.77;101739.88;5086776;27;20043;-44
2023/05/08 09:37:32;;;;;;;0.20;0.20;;;;;;;20.15;52.62;101738.50;5081574;27;20638;-45
2023/05/08 09:40:18;;;;;;;0.20;0.20;;;;;;;20.17;52.68;101738.25;5057485;28;20684;-45
2023/05/08 09:42:46;;;;;;;0.20;0.20;;;;;;;20.15;52.56;101741.28;5085550;28;20124;-44
2023/05/08 09:45:25;;;;;;;0.20;0.20;;;;;;;20.14;52.36;101741.53;5092245;28;20587;-45
2023/05/08 09:47:51;;;;;;;0.20;0.20;;;;;;;20.16;52.30;101736.56;5094902;28;20893;-43
2023/05/08 09:50:17;;;;;;;0.20;0.20;;;;;;;20.16;52.37;101736.56;5103616;28;20035;-45
2023/05/08 09:52:46;;;;;;;0.20;0.20;;;;;;;20.18;52.85;101735.22;5094403;27;20039;-45
2023/05/08 09:55:12;;;;;;;0.20;0.20;;;;;;;20.16;52.78;101728.25;5099129;27;20043;-45
2023/05/08 09:57:40;;;;;;;0.20;0.20;;;;;;;20.16;51.92;101733.78;5097364;28;20062;-44
2023/05/08 10:00:10;;;;;;;0.20;0.20;;;;;;;20.17;52.50;101728.03;5081007;27;20134;-44
2023/05/08 10:02:36;;;;;;;0.20;0.20;;;;;;;20.15;52.35;101727.44;5076822;27;20613;-44
2023/05/08 10:05:04;;;;;;;0.20;0.20;;;;;;;20.15;51.49;101729.38;5090802;27;20170;-44
2023/05/08 10:07:32;;;;;;;0.20;0.20;;;;;;;20.13;51.10;101726.06;5101564;27;20801;-44
2023/05/08 10:09:59;;;;;;;0.20;0.20;;;;;;;20.16;53.32;101725.50;5102002;27;20043;-43
2023/05/08 10:12:26;;;;;;;0.20;0.20;;;;;;;20.14;51.61;101720.25;5082680;28;20056;-43
2023/05/08 10:14:51;;;;;;;0.20;0.20;;;;;;;20.15;51.87;101721.06;5098926;28;20082;-46
2023/05/08 10:17:27;;;;;;;0.20;0.20;;;;;;;20.15;51.53;101710.00;5106541;27;20278;-47
2023/05/08 10:19:58;;;;;;;0.30;0.30;;;;;;;20.14;50.65;101716.66;5101500;28;20659;-44
2023/05/08 10:22:25;;;;;;;0.20;0.20;;;;;;;20.14;50.86;101719.41;5083452;28;20047;-45
2023/05/08 10:24:55;;;;;;;0.20;0.20;;;;;;;20.14;50.96;101722.19;5096582;27;20103;-44
2023/05/08 10:27:45;;;;;;;0.20;0.20;;;;;;;20.15;51.44;101718.31;5097049;28;20075;-43
2023/05/08 10:30:13;;;;;;;0.20;0.20;;;;;;;20.15;51.87;101716.38;5083207;28;20058;-43
2023/05/08 10:32:42;;;;;;;0.25;0.25;;;;;;;20.14;50.82;101711.94;5081054;28;20075;-44
2023/05/08 10:35:10;;;;;;;0.20;0.20;;;;;;;20.13;50.60;101713.06;5078058;27;20141;-44
2023/05/08 10:37:37;;;;;;;0.20;0.20;;;;;;;20.14;50.70;101719.41;5093897;27;20174;-45
2023/05/08 10:40:04;;;;;;;0.20;0.20;;;;;;;20.14;50.99;101714.72;5073798;28;20043;-44
2023/05/08 10:42:30;;;;;;;0.20;0.20;;;;;;;20.14;50.95;101714.72;5057171;28;20050;-43
2023/05/08 10:44:56;;;;;;;0.20;0.20;;;;;;;20.14;50.30;101706.41;5069466;27;20047;-44
2023/05/08 10:47:29;;;;;;;0.20;0.20;;;;;;;20.15;50.69;101710.00;5101039;28;20043;-43
2023/05/08 10:50:35;;;;;;;0.20;0.20;;;;;;;20.14;51.30;101706.41;5092887;27;20679;-44
2023/05/08 10:53:06;;;;;;;0.20;0.20;;;;;;;20.15;51.04;101710.00;5077450;27;20104;-44
2023/05/08 10:55:36;;;;;;;0.20;0.20;;;;;;;20.13;50.54;101695.63;5081212;28;20471;-43
2023/05/08 10:58:11;;;;;;;0.20;0.20;;;;;;;20.13;50.70;101704.75;5078639;28;20127;-44
2023/05/08 11:03:28;;;;;;;0.20;0.20;;;;;;;20.13;50.56;101701.16;5134747;27;20132;-44
2023/05/08 11:05:59;;;;;;;0.20;0.20;;;;;;;20.15;50.41;101694.25;5122425;27;20038;-41
2023/05/08 11:08:26;;;;;;;0.30;0.30;;;;;;;20.14;50.48;101697.28;5123096;27;20046;-45
2023/05/08 11:11:05;;;;;;;0.20;0.20;;;;;;;20.14;50.75;101698.13;5108095;27;20070;-46
2023/05/08 11:13:40;;;;;;;0.20;0.20;;;;;;;20.12;50.14;101692.03;5126763;27;20042;-45
2023/05/08 11:16:06;;;;;;;0.20;0.20;;;;;;;20.12;50.63;101688.41;5133273;27;20800;-45
2023/05/08 11:18:32;;;;;;;0.20;0.20;;;;;;;20.13;50.21;101690.13;5119848;27;20080;-43
2023/05/08 11:21:05;;;;;;;0.20;0.20;;;;;;;20.13;50.41;101690.94;5122867;27;20051;-46
2023/05/08 11:23:35;;;;;;;0.20;0.20;;;;;;;20.13;50.48;101687.34;5098732;27;20099;-44
2023/05/08 11:26:03;;;;;;;0.20;0.20;;;;;;;20.15;54.19;101687.91;5118204;27;20050;-45
2023/05/08 11:28:31;;;;;;;0.20;0.20;;;;;;;20.17;51.83;101689.31;5126969;27;20062;-43
2023/05/08 11:31:02;;;;;;;0.20;0.20;;;;;;;20.18;52.09;101690.13;5126495;27;20107;-43
2023/05/08 11:33:29;;;;;;;0.22;0.22;;;;;;;20.16;51.26;101689.56;5103265;27;20067;-46
2023/05/08 11:35:58;;;;;;;0.20;0.20;;;;;;;20.15;50.90;101685.13;5094089;28;20047;-44